Time;durP1;ratioP1;P1;durP2;ratioP2;P2;SDS_P1;SDS_P2;PMS_P1;PMS_P2;Temp;Humidity;BMP_temperature;BMP_pressure;BME280_temperature;BME280_humidity;BME280_pressure;Samples;Min_cycle;Max_cycle;Signal;HPM_P1;HPM_P2
2022/05/11 00:00:44;;;;;;;4.00;1.52;;;;;;;24.77;33.77;101370.84;5017756;28;20022;-69
2022/05/11 00:03:10;;;;;;;8.25;2.20;;;;;;;23.46;35.70;101371.25;5021556;28;20029;-69
2022/05/11 00:05:36;;;;;;;7.85;2.22;;;;;;;23.91;35.67;101368.78;5026564;28;20034;-69
2022/05/11 00:08:03;;;;;;;9.57;1.73;;;;;;;23.84;35.89;101364.72;5011916;28;20034;-69
2022/05/11 00:10:30;;;;;;;7.43;1.75;;;;;;;23.64;36.25;101360.50;5008504;28;20118;-69
2022/05/11 00:12:57;;;;;;;3.97;1.83;;;;;;;24.56;34.79;101355.13;5021690;28;20557;-69
2022/05/11 00:15:23;;;;;;;10.95;1.67;;;;;;;24.37;35.16;101357.16;5026212;28;20044;-69
2022/05/11 00:17:51;;;;;;;6.40;2.45;;;;;;;23.92;35.82;101357.16;5027503;28;20467;-69
2022/05/11 00:20:19;;;;;;;8.25;1.65;;;;;;;23.35;36.90;101357.66;5028615;28;20539;-69
2022/05/11 00:22:45;;;;;;;6.75;1.83;;;;;;;23.43;36.78;101355.44;5026879;28;20057;-69
2022/05/11 00:25:13;;;;;;;9.82;1.95;;;;;;;23.00;37.71;101347.13;5026954;28;20179;-69
2022/05/11 00:27:39;;;;;;;8.07;1.92;;;;;;;23.86;35.85;101350.31;5024799;28;20044;-69
2022/05/11 00:30:06;;;;;;;4.97;1.88;;;;;;;23.12;37.19;101346.47;5010045;28;20026;-69
2022/05/11 00:32:31;;;;;;;4.43;1.60;;;;;;;24.39;34.79;101337.44;5007911;28;20372;-69
2022/05/11 00:34:57;;;;;;;8.63;1.58;;;;;;;23.60;35.97;101345.63;5014966;28;20017;-70
2022/05/11 00:37:22;;;;;;;4.90;1.50;;;;;;;23.50;35.94;101346.13;5013879;28;20091;-69
2022/05/11 00:39:47;;;;;;;8.18;1.63;;;;;;;23.60;35.69;101342.94;5023047;28;20493;-69
2022/05/11 00:42:13;;;;;;;3.80;1.50;;;;;;;23.95;34.99;101345.44;5027166;28;20069;-69
2022/05/11 00:44:38;;;;;;;7.40;1.50;;;;;;;23.62;35.51;101341.06;5026479;28;20108;-69
2022/05/11 00:47:09;;;;;;;6.90;1.50;;;;;;;23.57;35.86;101329.78;5019107;28;20026;-70
2022/05/11 00:49:40;;;;;;;9.43;2.40;;;;;;;22.97;36.10;101331.25;5025593;28;20084;-69
2022/05/11 00:52:11;;;;;;;7.13;1.40;;;;;;;22.95;36.69;101330.50;5027167;28;20033;-69
2022/05/11 00:54:52;;;;;;;8.00;2.08;;;;;;;23.15;36.33;101330.31;5026294;28;20481;-69
2022/05/11 00:57:30;;;;;;;4.70;1.38;;;;;;;24.16;34.77;101321.94;5016308;28;20446;-70
2022/05/11 00:59:56;;;;;;;4.43;1.70;;;;;;;23.23;36.38;101323.69;5028050;28;20029;-69
2022/05/11 01:02:23;;;;;;;6.75;2.13;;;;;;;24.03;34.94;101312.00;5028109;28;20040;-69
2022/05/11 01:04:52;;;;;;;6.22;1.98;;;;;;;24.09;34.84;101316.09;5028212;28;20025;-69
2022/05/11 01:07:18;;;;;;;5.28;1.77;;;;;;;23.94;35.13;101323.19;5024518;28;20108;-69
2022/05/11 01:09:43;;;;;;;6.15;2.08;;;;;;;24.57;34.19;101313.22;5029815;28;20029;-69
2022/05/11 01:12:16;;;;;;;6.53;1.50;;;;;;;24.94;33.53;101308.28;5025753;28;20196;-69
2022/05/11 01:14:44;;;;;;;4.97;1.67;;;;;;;24.92;33.75;101310.19;5030402;28;20025;-69
2022/05/11 01:17:10;;;;;;;7.90;1.45;;;;;;;24.41;34.33;101305.28;5028996;28;20929;-69
2022/05/11 01:19:40;;;;;;;6.70;1.85;;;;;;;24.15;35.31;101305.06;5029039;28;20021;-69
2022/05/11 01:22:15;;;;;;;4.65;1.67;;;;;;;24.89;33.66;101289.88;5029020;28;20393;-69
2022/05/11 01:24:46;;;;;;;4.85;1.52;;;;;;;24.35;34.56;101300.31;5029900;28;20029;-69
2022/05/11 01:27:26;;;;;;;4.68;1.50;;;;;;;24.27;35.00;101297.25;5029781;28;20160;-69
2022/05/11 01:29:52;;;;;;;3.72;1.40;;;;;;;23.83;35.62;101302.44;5031244;28;20087;-70
2022/05/11 01:32:23;;;;;;;4.40;1.52;;;;;;;23.54;36.31;101299.66;5027604;28;20108;-69
2022/05/11 01:34:58;;;;;;;8.00;1.65;;;;;;;24.38;35.32;101300.13;5004072;28;20041;-69
2022/05/11 01:37:23;;;;;;;6.57;1.90;;;;;;;24.06;35.66;101286.91;5022932;28;20029;-69
2022/05/11 01:39:49;;;;;;;6.47;2.50;;;;;;;23.77;36.10;101294.81;5029691;28;20485;-69
2022/05/11 01:42:14;;;;;;;9.48;2.22;;;;;;;23.36;37.01;101282.06;5029039;28;20045;-68
2022/05/11 01:44:40;;;;;;;8.70;2.00;;;;;;;24.42;34.81;101282.97;5045903;28;20343;-69
2022/05/11 01:47:06;;;;;;;7.68;1.65;;;;;;;24.33;35.36;101272.84;5028349;28;20538;-69
2022/05/11 01:49:32;;;;;;;5.07;2.03;;;;;;;24.85;33.71;101276.78;5029583;28;20121;-69
2022/05/11 01:51:58;;;;;;;7.97;1.75;;;;;;;23.11;36.29;101280.72;5025075;28;20021;-70
2022/05/11 01:54:24;;;;;;;10.27;2.00;;;;;;;24.26;34.24;101279.50;5023914;28;20389;-69
2022/05/11 01:56:50;;;;;;;5.90;1.30;;;;;;;23.74;34.74;101279.00;5009851;28;20557;-70
2022/05/11 01:59:15;;;;;;;8.13;1.45;;;;;;;23.88;34.36;101279.03;5021360;28;20117;-70
2022/05/11 02:01:41;;;;;;;5.53;1.60;;;;;;;23.85;34.47;101281.88;5023174;28;20071;-69
2022/05/11 02:07:49;;;;;;;6.45;1.33;;;;;;;24.33;33.71;101283.53;5011394;28;20508;-69
2022/05/11 02:09:43;;;;;;;6.45;1.95;;;;;;;24.19;33.68;101274.56;5031084;28;20409;-69
2022/05/11 02:12:10;;;;;;;10.52;1.63;;;;;;;23.53;34.76;101276.63;5018503;28;20044;-69
2022/05/11 02:14:37;;;;;;;4.63;1.38;;;;;;;23.67;34.49;101277.59;5025196;28;20036;-69
2022/05/11 02:17:02;;;;;;;6.68;1.42;;;;;;;23.88;34.14;101281.72;5028354;28;20456;-70
2022/05/11 02:19:31;;;;;;;2.95;1.15;;;;;;;23.38;34.32;101274.81;5029908;28;20021;-69
2022/05/11 02:21:56;;;;;;;2.10;0.98;;;;;;;23.94;33.48;101271.63;5018636;28;20103;-69
2022/05/11 02:24:23;;;;;;;4.57;1.08;;;;;;;23.93;33.41;101262.75;5012919;28;20069;-69
2022/05/11 02:26:48;;;;;;;5.18;1.27;;;;;;;24.15;32.89;101261.47;5028294;28;20051;-69
2022/05/11 02:29:13;;;;;;;7.82;1.20;;;;;;;23.01;35.24;101263.50;5028342;28;20455;-69
2022/05/11 02:31:39;;;;;;;5.88;1.00;;;;;;;24.15;32.56;101254.34;5028056;28;20043;-69
2022/05/11 02:34:06;;;;;;;4.13;1.00;;;;;;;23.49;33.06;101259.06;5010130;28;20041;-69
2022/05/11 02:36:35;;;;;;;3.22;0.80;;;;;;;23.02;33.43;101251.91;5013739;28;20028;-69
2022/05/11 02:39:01;;;;;;;4.05;1.20;;;;;;;23.33;33.00;101244.91;5028519;28;20367;-69
2022/05/11 02:41:26;;;;;;;5.80;1.15;;;;;;;23.26;33.30;101248.84;5030183;28;20032;-69
2022/05/11 02:43:51;;;;;;;5.28;1.00;;;;;;;23.06;33.57;101255.28;5024682;28;20498;-69
2022/05/11 02:46:17;;;;;;;4.00;0.75;;;;;;;23.51;32.89;101248.31;5013962;28;20049;-69
2022/05/11 02:48:42;;;;;;;4.53;1.17;;;;;;;24.06;32.33;101244.19;5028690;28;20088;-69
2022/05/11 02:51:08;;;;;;;3.42;1.13;;;;;;;23.78;32.88;101243.16;5008226;28;20563;-69
2022/05/11 02:53:33;;;;;;;6.32;1.00;;;;;;;24.07;32.75;101242.38;5025934;28;20065;-69
2022/05/11 02:55:59;;;;;;;6.15;1.83;;;;;;;24.04;32.42;101243.41;5027772;28;20464;-70
2022/05/11 02:58:27;;;;;;;3.60;0.70;;;;;;;23.28;33.72;101249.63;5029923;28;20025;-70
2022/05/11 03:00:55;;;;;;;4.50;0.95;;;;;;;23.88;32.60;101244.34;5028403;28;20021;-70
2022/05/11 03:03:21;;;;;;;4.95;1.00;;;;;;;23.71;33.18;101241.78;5027812;28;20087;-69
2022/05/11 03:05:48;;;;;;;2.80;0.63;;;;;;;23.56;33.50;101235.53;5024902;28;20036;-69
2022/05/11 03:08:13;;;;;;;4.22;0.88;;;;;;;23.41;33.35;101242.66;5027871;28;20071;-69
2022/05/11 03:10:40;;;;;;;2.95;1.05;;;;;;;23.14;33.35;101237.94;5027746;28;20434;-69
2022/05/11 03:13:07;;;;;;;3.05;1.13;;;;;;;23.06;33.57;101233.97;5012295;28;20095;-70
2022/05/11 03:15:32;;;;;;;4.07;0.68;;;;;;;23.30;32.95;101237.94;5014640;28;20109;-69
2022/05/11 03:17:58;;;;;;;3.90;0.80;;;;;;;23.85;32.00;101233.84;5023663;28;20580;-69
2022/05/11 03:20:26;;;;;;;4.47;1.02;;;;;;;22.78;33.51;101236.34;5029974;28;20029;-70
2022/05/11 03:22:51;;;;;;;4.72;1.23;;;;;;;23.21;33.51;101233.97;5027611;28;20029;-69
2022/05/11 03:25:17;;;;;;;4.72;1.10;;;;;;;24.15;31.94;101224.97;5026205;28;20059;-69
2022/05/11 03:27:43;;;;;;;1.88;0.65;;;;;;;23.28;32.95;101223.81;5027350;28;20079;-69
2022/05/11 03:30:09;;;;;;;3.17;0.90;;;;;;;24.15;31.91;101224.97;5027141;28;20025;-69
2022/05/11 03:35:19;;;;;;;7.35;1.15;;;;;;;24.07;31.80;101205.00;5014175;28;20095;-69
2022/05/11 03:37:44;;;;;;;3.85;0.70;;;;;;;22.75;34.22;101209.88;5009735;28;20060;-69
2022/05/11 03:40:10;;;;;;;3.90;0.80;;;;;;;24.52;31.35;101212.00;5022817;28;20029;-69
2022/05/11 03:42:37;;;;;;;3.53;0.70;;;;;;;24.16;31.53;101205.28;5029510;28;20400;-69
2022/05/11 03:45:13;;;;;;;3.88;0.68;;;;;;;24.35;31.75;101209.50;5024962;28;20132;-69
2022/05/11 03:47:39;;;;;;;1.80;0.80;;;;;;;24.25;31.64;101219.03;5026172;28;20104;-69
2022/05/11 03:50:06;;;;;;;4.03;0.75;;;;;;;23.73;32.51;101218.56;5010840;28;20406;-70
2022/05/11 03:52:32;;;;;;;7.20;1.77;;;;;;;22.90;33.30;101225.94;5027323;28;20025;-69
2022/05/11 03:54:57;;;;;;;7.25;0.80;;;;;;;23.07;33.53;101215.22;5027643;28;20056;-69
2022/05/11 03:57:22;;;;;;;2.50;0.70;;;;;;;23.76;32.32;101202.34;5029470;28;20032;-69
2022/05/11 03:59:48;;;;;;;2.85;0.90;;;;;;;23.05;33.09;101211.75;5026025;28;20139;-69
2022/05/11 04:02:13;;;;;;;4.75;0.82;;;;;;;22.39;34.55;101208.25;5027292;28;20032;-69
2022/05/11 04:04:38;;;;;;;4.65;1.00;;;;;;;22.99;33.18;101201.44;5029558;28;20022;-69
2022/05/11 04:07:04;;;;;;;6.18;0.75;;;;;;;22.52;34.06;101197.81;5009791;28;20026;-69
2022/05/11 04:09:32;;;;;;;2.35;0.80;;;;;;;23.45;32.68;101198.84;5006978;28;20036;-68
2022/05/11 04:11:57;;;;;;;3.45;0.63;;;;;;;23.38;32.46;101193.00;5027107;28;20143;-69
2022/05/11 04:14:23;;;;;;;3.53;0.98;;;;;;;23.33;32.55;101194.22;5027958;28;20026;-69
2022/05/11 04:16:59;;;;;;;3.05;0.60;;;;;;;23.15;32.72;101197.00;5018939;28;20024;-69
2022/05/11 04:19:25;;;;;;;3.45;0.75;;;;;;;24.17;31.55;101199.00;5045018;28;20032;-69
2022/05/11 04:21:50;;;;;;;2.20;0.70;;;;;;;24.28;31.42;101189.50;5026732;28;20068;-69
2022/05/11 04:24:16;;;;;;;2.13;0.70;;;;;;;23.47;32.26;101194.25;5010260;28;20084;-69
2022/05/11 04:26:41;;;;;;;4.80;0.90;;;;;;;23.20;32.61;101192.28;5026681;28;20036;-70
2022/05/11 04:29:06;;;;;;;7.57;1.20;;;;;;;22.98;32.51;101191.72;5010474;28;20091;-70
2022/05/11 04:31:32;;;;;;;2.67;0.80;;;;;;;23.09;32.95;101191.13;5029446;28;20032;-69
2022/05/11 04:33:57;;;;;;;2.28;0.75;;;;;;;23.23;32.70;101182.34;5026927;28;20367;-69
2022/05/11 04:36:22;;;;;;;4.93;0.60;;;;;;;23.04;32.57;101194.06;5022526;28;20026;-69
2022/05/11 04:38:48;;;;;;;5.40;1.00;;;;;;;23.11;32.76;101200.75;5008379;28;20064;-69
2022/05/11 04:41:13;;;;;;;5.63;0.88;;;;;;;23.08;32.71;101200.94;5030002;28;20033;-69
2022/05/11 04:43:39;;;;;;;4.65;0.60;;;;;;;23.77;31.17;101198.75;5031571;28;20167;-70
2022/05/11 04:46:04;;;;;;;2.80;0.45;;;;;;;22.92;32.35;101206.25;5024294;28;20030;-69
2022/05/11 04:48:29;;;;;;;2.53;0.68;;;;;;;23.43;31.99;101203.41;5024714;28;20029;-69
2022/05/11 04:51:03;;;;;;;0.88;0.57;;;;;;;22.67;32.64;101206.78;5030572;28;20037;-69
2022/05/11 04:53:29;;;;;;;8.25;1.00;;;;;;;22.92;32.72;101208.09;5030159;28;20098;-69
2022/05/11 04:55:55;;;;;;;3.17;0.65;;;;;;;21.91;33.82;101201.91;5028075;28;20025;-69
2022/05/11 04:58:21;;;;;;;1.67;0.70;;;;;;;22.92;32.68;101206.25;5022086;28;20183;-69
2022/05/11 05:00:46;;;;;;;7.25;0.75;;;;;;;23.52;31.74;101192.19;5012237;28;20104;-69
2022/05/11 05:03:14;;;;;;;2.35;0.63;;;;;;;22.69;32.81;101194.22;5012359;28;20137;-69
2022/05/11 05:05:41;;;;;;;5.55;0.75;;;;;;;22.70;33.13;101187.97;5017154;28;20478;-69
2022/05/11 05:08:07;;;;;;;4.82;0.65;;;;;;;23.43;32.30;101190.06;5031847;28;20040;-69
2022/05/11 05:10:33;;;;;;;2.35;0.60;;;;;;;22.75;32.89;101204.56;5028841;28;20037;-69
2022/05/11 05:13:08;;;;;;;3.45;0.60;;;;;;;23.03;33.30;101208.34;5030954;28;20036;-69
2022/05/11 05:15:36;;;;;;;0.68;0.45;;;;;;;23.27;32.07;101205.22;5030387;28;20036;-69
2022/05/11 05:18:03;;;;;;;3.30;0.47;;;;;;;23.91;31.36;101197.09;5029239;28;20029;-69
2022/05/11 05:20:30;;;;;;;3.47;0.70;;;;;;;23.45;32.08;101198.84;5032696;28;20085;-69
2022/05/11 05:22:55;;;;;;;1.77;0.63;;;;;;;23.28;31.98;101212.28;5029361;28;20017;-69
2022/05/11 05:25:21;;;;;;;2.85;0.90;;;;;;;23.74;31.65;101203.38;5029614;28;20047;-70
2022/05/11 05:27:50;;;;;;;1.88;0.50;;;;;;;22.71;33.39;101203.00;5026158;28;20042;-69
2022/05/11 05:32:59;;;;;;;5.65;1.15;;;;;;;22.50;33.74;101218.34;5011109;28;20425;-69
2022/05/11 05:35:24;;;;;;;5.10;0.70;;;;;;;21.92;34.08;101219.59;5025008;28;20030;-69
2022/05/11 05:37:50;;;;;;;5.70;0.85;;;;;;;22.58;33.39;101215.28;5011061;28;20025;-69
2022/05/11 05:40:15;;;;;;;3.00;1.00;;;;;;;22.28;34.11;101210.63;5029046;28;20040;-69
2022/05/11 05:42:41;;;;;;;5.85;1.00;;;;;;;22.29;33.84;101221.19;5029351;28;20073;-69
2022/05/11 05:45:08;;;;;;;7.88;1.23;;;;;;;22.12;34.20;101216.75;5029257;28;20033;-70
2022/05/11 05:47:33;;;;;;;5.30;0.68;;;;;;;22.86;33.01;101212.81;5022681;28;20025;-70
2022/05/11 05:49:59;;;;;;;7.13;0.95;;;;;;;23.29;32.27;101214.88;5016187;28;20155;-69
2022/05/11 05:52:25;;;;;;;2.65;0.77;;;;;;;22.37;33.06;101212.81;5027648;28;20388;-69
2022/05/11 05:54:54;;;;;;;6.78;1.05;;;;;;;22.72;33.06;101209.19;5028414;28;20018;-70
2022/05/11 05:57:19;;;;;;;4.63;0.90;;;;;;;22.10;34.08;101213.31;5031279;28;20059;-69
2022/05/11 05:59:45;;;;;;;5.53;0.88;;;;;;;22.74;32.86;101213.47;5020240;28;20431;-70
2022/05/11 06:02:14;;;;;;;7.88;1.05;;;;;;;23.19;32.05;101214.53;5030437;28;20440;-69
2022/05/11 06:04:49;;;;;;;7.47;0.90;;;;;;;23.50;32.17;101204.75;5030177;28;20025;-69
2022/05/11 06:07:16;;;;;;;7.65;1.55;;;;;;;24.41;30.92;101214.44;5028261;28;20465;-71
2022/05/11 06:09:42;;;;;;;8.98;0.80;;;;;;;24.95;30.21;101204.88;5030646;28;20033;-69
2022/05/11 06:12:14;;;;;;;5.55;0.85;;;;;;;25.13;29.55;101206.34;5015439;28;20025;-70
2022/05/11 06:14:40;;;;;;;6.07;0.90;;;;;;;24.77;30.25;101205.13;5009498;28;20037;-69
2022/05/11 06:17:17;;;;;;;10.70;1.42;;;;;;;23.38;31.29;101208.13;5010155;28;20030;-69
2022/05/11 06:19:43;;;;;;;4.88;1.02;;;;;;;24.19;30.66;101210.47;5020315;28;20049;-69
2022/05/11 06:22:09;;;;;;;10.18;0.85;;;;;;;24.20;30.52;101211.31;5028622;28;20588;-69
2022/05/11 06:24:35;;;;;;;4.93;0.55;;;;;;;24.94;29.55;101217.38;5027896;28;20033;-70
2022/05/11 06:27:00;;;;;;;4.00;0.90;;;;;;;24.64;29.82;101217.53;5029276;28;20473;-70
2022/05/11 06:29:26;;;;;;;2.63;0.50;;;;;;;25.14;29.55;101213.44;5030865;28;20358;-70
2022/05/11 06:31:51;;;;;;;3.63;0.77;;;;;;;24.63;30.59;101218.50;5027240;28;20120;-69
2022/05/11 06:34:17;;;;;;;2.38;0.63;;;;;;;23.69;31.19;101211.69;5028255;28;20128;-69
2022/05/11 06:36:42;;;;;;;6.97;0.70;;;;;;;23.65;31.11;101211.00;5009012;28;20025;-70
2022/05/11 06:39:08;;;;;;;3.40;0.90;;;;;;;24.99;29.64;101207.25;5016864;28;20071;-70
2022/05/11 06:41:34;;;;;;;3.92;0.73;;;;;;;24.36;30.07;101213.91;5033689;28;20115;-70
2022/05/11 06:43:59;;;;;;;4.65;0.77;;;;;;;24.10;30.39;101202.13;5028260;28;20053;-69
2022/05/11 06:46:24;;;;;;;2.92;0.70;;;;;;;23.51;31.17;101203.81;5029643;28;20026;-70
2022/05/11 06:48:50;;;;;;;5.15;0.80;;;;;;;24.59;29.99;101206.25;5019291;28;20448;-69
2022/05/11 06:51:17;;;;;;;5.05;1.55;;;;;;;27.22;27.06;101206.16;5027646;28;20025;-70
2022/05/11 06:59:20;;;;;;;3.95;0.85;;;;;;;30.73;23.36;101195.56;5025800;28;20565;-70
2022/05/11 07:01:47;;;;;;;4.30;1.42;;;;;;;30.44;23.13;101196.34;5012346;28;20112;-69
2022/05/11 07:04:12;;;;;;;2.28;0.70;;;;;;;30.23;22.76;101199.94;5012761;28;20075;-70
2022/05/11 07:06:37;;;;;;;4.10;0.80;;;;;;;29.30;23.44;101206.09;5028311;28;20033;-70
2022/05/11 07:09:03;;;;;;;2.80;0.70;;;;;;;28.01;24.24;101205.59;5028858;28;20031;-70
2022/05/11 07:14:13;;;;;;;3.78;0.60;;;;;;;27.47;25.18;101193.59;5029291;28;20052;-69
2022/05/11 07:16:39;;;;;;;2.60;0.60;;;;;;;29.31;23.29;101186.28;5023504;28;20219;-69
2022/05/11 07:19:05;;;;;;;3.45;1.00;;;;;;;30.03;23.33;101179.25;5026130;28;20490;-69
2022/05/11 07:21:31;;;;;;;4.88;0.52;;;;;;;30.22;22.47;101182.03;5018247;28;20555;-69
2022/05/11 07:23:56;;;;;;;4.07;0.93;;;;;;;31.65;21.08;101178.19;5026932;28;20035;-69
2022/05/11 07:26:22;;;;;;;2.55;0.90;;;;;;;29.70;22.56;101186.56;5028137;28;20030;-69
2022/05/11 07:28:47;;;;;;;3.83;0.55;;;;;;;31.73;20.98;101181.00;5022160;28;20021;-69
2022/05/11 07:31:12;;;;;;;1.52;0.40;;;;;;;33.05;20.84;101182.69;5016996;28;20025;-70
2022/05/11 07:33:39;;;;;;;4.68;1.33;;;;;;;31.75;20.93;101170.91;5018045;28;20030;-70
2022/05/11 07:36:05;;;;;;;3.78;0.77;;;;;;;31.92;20.63;101174.69;5010248;28;20029;-69
2022/05/11 07:38:30;;;;;;;1.95;0.50;;;;;;;30.73;21.35;101176.69;5009435;28;20041;-69
2022/05/11 07:40:56;;;;;;;2.50;0.45;;;;;;;32.15;20.57;101168.97;5017983;28;20072;-70
2022/05/11 07:43:21;;;;;;;4.07;0.70;;;;;;;33.94;19.61;101174.63;5022598;28;20057;-69
2022/05/11 07:45:46;;;;;;;1.67;0.82;;;;;;;32.78;19.96;101183.59;5010916;28;20473;-70
2022/05/11 07:48:12;;;;;;;3.92;1.10;;;;;;;31.62;20.58;101176.63;5024125;28;20088;-69
2022/05/11 07:50:37;;;;;;;2.47;0.82;;;;;;;31.37;21.18;101178.06;5016032;28;20587;-70
2022/05/11 07:53:04;;;;;;;1.83;0.60;;;;;;;32.51;19.83;101173.59;5009149;28;20061;-70
2022/05/11 07:55:30;;;;;;;5.53;0.90;;;;;;;33.85;19.52;101181.84;5009346;28;20021;-69
2022/05/11 08:00:42;;;;;;;3.10;0.70;;;;;;;33.42;19.35;101191.69;5028164;28;20075;-69
2022/05/11 08:03:11;;;;;;;3.10;0.73;;;;;;;33.96;18.41;101188.84;5027494;28;20502;-69
2022/05/11 08:05:38;;;;;;;3.00;0.70;;;;;;;34.79;17.58;101185.47;5026526;28;20052;-70
2022/05/11 08:08:06;;;;;;;1.42;0.70;;;;;;;34.58;18.23;101191.38;5027439;28;20029;-69
2022/05/11 08:10:44;;;;;;;3.33;0.80;;;;;;;33.57;18.65;101173.84;5031918;28;20497;-70
2022/05/11 08:13:10;;;;;;;3.10;0.60;;;;;;;32.83;19.24;101184.00;5012157;28;20352;-70
2022/05/11 08:15:39;;;;;;;6.55;0.82;;;;;;;32.89;18.99;101177.97;5012759;28;20025;-69
2022/05/11 08:18:07;;;;;;;6.47;0.90;;;;;;;30.91;20.97;101185.84;5046640;28;20481;-69
2022/05/11 08:20:40;;;;;;;3.03;0.88;;;;;;;32.25;20.03;101177.88;5029758;28;20397;-70
2022/05/11 08:23:06;;;;;;;4.43;0.98;;;;;;;32.09;20.04;101185.75;5047871;28;20499;-69
2022/05/11 08:25:34;;;;;;;3.13;0.70;;;;;;;32.27;20.85;101185.84;5031820;28;20022;-69
2022/05/11 08:28:00;;;;;;;5.63;0.85;;;;;;;30.61;21.91;101197.53;5029284;28;20037;-70
2022/05/11 08:33:22;;;;;;;10.50;1.55;;;;;;;31.68;20.91;101194.09;5032311;28;20051;-69
2022/05/11 08:35:55;;;;;;;3.10;0.70;;;;;;;32.80;20.32;101197.84;5029768;28;20108;-69
2022/05/11 08:38:22;;;;;;;8.02;1.27;;;;;;;32.34;20.98;101192.34;5031288;28;20053;-69
2022/05/11 08:41:04;;;;;;;9.68;1.27;;;;;;;30.81;21.97;101203.84;5029953;28;20028;-69
2022/05/11 08:43:34;;;;;;;4.85;1.15;;;;;;;32.80;20.81;101187.00;5028325;28;20052;-69
2022/05/11 08:46:21;;;;;;;7.20;1.20;;;;;;;33.22;19.96;101197.25;5029464;28;20100;-69
2022/05/11 08:49:00;;;;;;;8.27;1.30;;;;;;;33.69;19.56;101187.13;5025876;28;20504;-69
2022/05/11 08:51:41;;;;;;;5.38;1.85;;;;;;;34.01;19.63;101191.09;5031048;28;20025;-69
2022/05/11 08:54:09;;;;;;;7.18;1.30;;;;;;;32.18;21.92;101190.28;5032708;28;20029;-69
2022/05/11 08:56:34;;;;;;;7.47;1.05;;;;;;;31.59;22.89;101187.72;5042196;28;20507;-69
2022/05/11 08:59:00;;;;;;;7.95;1.40;;;;;;;31.35;22.53;101200.78;5028409;28;20025;-69
2022/05/11 09:01:30;;;;;;;7.20;1.30;;;;;;;32.72;22.48;101189.63;5035908;28;20135;-69
2022/05/11 09:03:58;;;;;;;7.85;1.30;;;;;;;32.94;21.62;101188.34;5029339;28;20108;-69
2022/05/11 09:06:32;;;;;;;8.23;1.40;;;;;;;32.57;21.90;101194.66;5023207;28;20041;-70
2022/05/11 09:08:59;;;;;;;6.50;1.20;;;;;;;33.02;22.38;101198.41;5019732;28;20033;-69
2022/05/11 09:11:42;;;;;;;6.50;1.63;;;;;;;34.52;19.94;101194.75;5019766;28;20135;-69
2022/05/11 09:14:08;;;;;;;11.45;1.55;;;;;;;32.48;21.72;101196.44;5029323;28;20083;-69
2022/05/11 09:16:46;;;;;;;9.02;1.50;;;;;;;31.87;23.09;101195.91;5027841;28;20417;-69
2022/05/11 09:19:25;;;;;;;5.88;1.10;;;;;;;31.94;22.25;101194.34;5030673;28;20036;-69
2022/05/11 09:21:58;;;;;;;12.30;1.50;;;;;;;32.24;22.80;101186.97;5029332;28;20026;-69
2022/05/11 09:24:34;;;;;;;5.15;1.10;;;;;;;30.82;23.59;101199.28;5029128;28;20060;-69
2022/05/11 09:27:38;;;;;;;6.15;1.10;;;;;;;29.43;25.09;101204.09;5013698;28;20045;-69
2022/05/11 09:30:28;;;;;;;5.43;1.10;;;;;;;30.41;23.79;101202.00;5009523;28;20115;-69
2022/05/11 09:33:22;;;;;;;8.18;1.20;;;;;;;30.53;24.08;101195.53;5031403;28;20370;-69
2022/05/11 09:35:48;;;;;;;4.43;1.10;;;;;;;32.37;22.44;101188.50;5028248;28;20091;-70
2022/05/11 09:38:16;;;;;;;9.20;1.73;;;;;;;32.50;22.06;101197.13;5029708;28;20025;-70
2022/05/11 09:40:50;;;;;;;6.45;1.30;;;;;;;33.56;21.38;101199.22;5030586;28;20045;-70
2022/05/11 09:43:54;;;;;;;7.25;2.03;;;;;;;31.88;22.47;101196.78;5027932;28;20711;-69
2022/05/11 09:46:22;;;;;;;3.85;0.82;;;;;;;30.95;22.17;101200.75;4968919;28;20046;-70
2022/05/11 09:49:00;;;;;;;2.65;1.52;;;;;;;29.92;24.24;101186.47;5016136;28;20036;-70
2022/05/11 09:51:47;;;;;;;3.50;1.00;;;;;;;28.97;25.14;101195.28;5017432;28;20150;-69
2022/05/11 09:54:18;;;;;;;3.97;1.23;;;;;;;30.67;24.40;101196.16;5027425;28;20026;-69
2022/05/11 09:56:53;;;;;;;10.18;1.20;;;;;;;30.75;23.64;101190.91;5029058;28;20033;-69
2022/05/11 09:59:18;;;;;;;6.28;1.60;;;;;;;30.76;23.03;101198.88;5027776;28;20056;-69
2022/05/11 10:01:46;;;;;;;7.80;1.17;;;;;;;31.09;22.78;101202.22;5024230;28;20030;-69
2022/05/11 10:04:12;;;;;;;9.95;1.30;;;;;;;33.07;21.31;101186.09;5016212;28;20459;-69
2022/05/11 10:06:52;;;;;;;4.97;1.38;;;;;;;32.54;21.55;101190.41;5039187;28;20136;-69
2022/05/11 10:09:26;;;;;;;6.10;1.10;;;;;;;31.19;22.51;101196.81;5045061;28;20392;-69
2022/05/11 10:11:52;;;;;;;6.95;1.25;;;;;;;33.07;21.44;101196.06;5009448;28;20037;-69
2022/05/11 10:23:15;;;;;;;7.28;1.45;;;;;;;31.13;21.05;101195.53;5039909;28;20044;-67
2022/05/11 10:25:43;;;;;;;1.77;0.90;;;;;;;31.86;21.00;101199.63;5049697;28;20479;-67
2022/05/11 10:28:12;;;;;;;4.55;0.80;;;;;;;31.87;20.11;101201.31;5034118;28;20026;-68
2022/05/11 10:30:58;;;;;;;6.38;1.02;;;;;;;30.92;21.49;101194.75;5027464;28;20025;-68
2022/05/11 10:33:33;;;;;;;3.08;1.33;;;;;;;30.56;22.49;101197.94;5028692;28;20025;-68
2022/05/11 10:35:59;;;;;;;3.92;1.00;;;;;;;32.30;20.71;101186.41;5028746;28;20037;-68
2022/05/11 10:38:45;;;;;;;6.43;1.08;;;;;;;30.38;22.73;101208.50;5029822;28;20474;-69
2022/05/11 10:41:29;;;;;;;4.63;1.05;;;;;;;30.73;22.48;101198.28;5008524;28;20037;-68
2022/05/11 10:44:23;;;;;;;10.32;1.25;;;;;;;30.30;23.03;101189.47;5033351;28;20045;-68
2022/05/11 10:47:02;;;;;;;5.68;1.00;;;;;;;33.56;20.54;101196.50;5044725;28;20507;-68
2022/05/11 10:49:30;;;;;;;5.40;1.67;;;;;;;34.69;18.87;101183.94;5022851;28;20025;-68
2022/05/11 10:52:17;;;;;;;4.47;0.70;;;;;;;33.81;19.15;101186.75;5029734;28;20420;-68
2022/05/11 10:54:57;;;;;;;5.65;1.00;;;;;;;34.52;18.36;101186.59;5025837;28;20033;-69
2022/05/11 10:58:02;;;;;;;8.00;1.25;;;;;;;33.56;19.04;101187.53;5029959;28;20092;-68
2022/05/11 11:00:32;;;;;;;5.72;0.80;;;;;;;33.99;20.02;101189.38;5016689;28;20064;-69
2022/05/11 11:03:45;;;;;;;3.65;0.77;;;;;;;32.49;20.18;101198.09;5028408;28;20013;-68
2022/05/11 11:09:08;;;;;;;2.92;0.85;;;;;;;32.15;20.31;101182.50;5028766;28;20085;-70
2022/05/11 11:11:49;;;;;;;4.30;0.85;;;;;;;31.70;20.55;101194.81;5019140;28;20040;-69
2022/05/11 11:14:25;;;;;;;2.20;0.68;;;;;;;32.01;19.99;101191.88;5026771;28;20108;-69
2022/05/11 11:16:50;;;;;;;5.60;0.77;;;;;;;33.44;18.40;101189.66;5026391;28;20033;-69
2022/05/11 11:19:16;;;;;;;2.63;1.20;;;;;;;31.20;20.39;101189.56;5028587;28;20029;-69
2022/05/11 11:21:43;;;;;;;4.60;0.50;;;;;;;32.55;18.89;101185.84;5026954;28;20026;-69
2022/05/11 11:24:22;;;;;;;4.57;1.20;;;;;;;33.71;18.66;101174.28;5029675;28;20033;-69
2022/05/11 11:26:53;;;;;;;3.10;0.93;;;;;;;31.84;19.75;101173.75;5027529;28;20029;-70
2022/05/11 11:29:22;;;;;;;2.70;0.47;;;;;;;32.42;19.78;101173.50;5028386;28;20440;-69
2022/05/11 11:31:57;;;;;;;5.57;0.80;;;;;;;32.86;18.59;101170.13;5027569;28;20067;-69
2022/05/11 11:34:25;;;;;;;1.90;0.65;;;;;;;31.59;19.44;101160.72;5028263;28;20029;-69
2022/05/11 11:36:51;;;;;;;3.20;0.80;;;;;;;32.64;18.92;101161.44;5025072;28;20029;-69
2022/05/11 11:39:42;;;;;;;2.97;0.80;;;;;;;30.70;20.76;101166.19;5022756;28;20037;-71
2022/05/11 11:42:07;;;;;;;2.83;1.10;;;;;;;32.78;18.71;101153.81;5027957;28;20403;-70
2022/05/11 11:44:41;;;;;;;2.28;1.00;;;;;;;31.19;19.62;101163.53;5025833;28;20021;-69
2022/05/11 11:47:26;;;;;;;1.75;0.50;;;;;;;30.90;19.62;101148.16;5035983;28;20122;-69
2022/05/11 11:49:52;;;;;;;3.83;0.60;;;;;;;31.08;19.63;101153.78;5017804;28;20029;-69
2022/05/11 11:52:46;;;;;;;5.00;0.93;;;;;;;31.43;20.49;101139.66;5026949;28;20045;-68
2022/05/11 11:55:28;;;;;;;4.50;1.02;;;;;;;32.38;20.04;101138.81;5021466;28;20036;-69
2022/05/11 11:57:56;;;;;;;6.72;1.23;;;;;;;33.26;18.92;101138.22;5026970;28;20025;-69
2022/05/11 12:00:52;;;;;;;4.10;0.88;;;;;;;32.84;19.29;101139.69;5025887;28;20044;-69
2022/05/11 12:03:24;;;;;;;3.58;0.90;;;;;;;31.10;20.68;101143.66;5023271;28;20041;-69
2022/05/11 12:15:01;;;;;;;4.72;1.02;;;;;;;33.41;20.06;101141.22;5035443;28;20065;-69
2022/05/11 12:17:05;;;;;;;6.47;1.88;;;;;;;31.61;22.09;101131.72;5024293;28;20040;-69